x

Upper Potomac, Md (44061) Weather Station

10:18am - Fri 26th May 2017 All times are EDT. -4 hours from GMT.

  • Wind
    13mph, 20mph gusts
  • Sea Temp 67°f
  • Air Temp 67°f
  • Sea Pressure 1007.7mb
  • Upper Potomac, Md
  • Upper Potomac, Md

More Historic Weather Station data

Upgrade to MSW Pro to gain access to the past 30 days of data for over 8000 Wavebouys and Weather Stations around the globe.

Join Pro

Comparision Forecast

View Surf forecast
   
Fri 05/26 10:18am 13 20 mph 1007.7mb 67f 67f
9:48am 13 18 mph 1007.4mb 68f 66f
9:18am 11 16 mph 1006.9mb 67f 66f
8:48am 9 13 mph 1007mb 67f 65f
8:18am 9 11 mph 1007mb 67f 63f
7:48am 7 9 mph 1006.5mb 67f 62f
7:18am 4 9 mph 1006.1mb 67f 60f
6:48am 7 9 mph 1005.1mb 67f 58f
5:48am 4 7 mph 1004.6mb 67f 57f
5:18am 7 9 mph 1003.9mb 67f 57f
4:48am 4 7 mph 1004mb 67f 57f
4:18am 7 9 mph 1002.7mb 67f 57f
3:48am 4 7 mph 1003.4mb 67f 57f
3:18am 7 7 mph 1003mb 67f 56f
2:48am 4 9 mph 1002.1mb 67f 56f
2:18am 9 11 mph 1002.2mb 67f 56f
1:48am 7 11 mph 1001.6mb 67f 56f
1:18am 7 9 mph 1001.6mb 68f 57f
12:48am 7 7 mph 1001.3mb 67f 57f
12:18am 4 7 mph 1001.1mb 67f 57f
Thu 05/25 11:48pm 9 11 mph 1001.3mb 67f 57f
11:18pm 7 9 mph 1000.8mb 67f 57f
10:48pm 4 7 mph 1000.6mb 67f 58f
10:18pm 11 13 mph 1000.8mb 68f 58f
9:48pm 4 4 mph 999.2mb 68f 58f
9:18pm 11 13 mph 999.2mb 68f 58f
8:48pm 7 7 mph 998.1mb 68f 58f
8:18pm 4 7 mph 997.7mb 68f 58f
7:48pm 9 13 mph 1000mb 68f 59f
7:18pm 7 9 mph 999.5mb 68f 58f
6:48pm 4 7 mph 998.2mb 68f 58f
6:18pm 9 11 mph 995.1mb 68f 58f
5:48pm  -  mph 999.2mb 68f -
5:18pm 4 7 mph 997mb 69f 69f
4:48pm 4 4 mph 996.8mb 68f 70f
4:18pm 2 4 mph 997.4mb 68f 71f
3:48pm 9 9 mph 996.8mb 67f 68f
3:18pm 7 9 mph 998mb 67f 67f
2:48pm 7 9 mph 998.7mb 67f 67f
2:18pm 11 13 mph 999.1mb 67f 66f
1:48pm 13 18 mph 999.6mb 67f 65f
1:18pm 11 11 mph 999.1mb 67f 65f
12:48pm 16 18 mph 999.8mb 67f 63f
12:18pm 4 9 mph 999.8mb 67f 63f
11:48am 13 16 mph 999.8mb 67f 61f
11:18am 13 16 mph 999.8mb 67f 61f
10:48am 2 4 mph 998.6mb 67f 60f
9:18am 4 7 mph 998.1mb 67f 58f
8:48am 7 9 mph 998.3mb 67f 57f
8:18am 2 4 mph 998.2mb 67f 57f
7:48am 4 7 mph 998.4mb 67f 57f
7:18am 7 9 mph 998.6mb 67f 56f
6:48am 7 9 mph 998.3mb 67f 56f
6:18am 11 13 mph 998.8mb 67f 55f
5:48am 9 11 mph 998.1mb 67f 55f
5:18am 18 22 mph 998.8mb 67f 55f
4:48am 13 20 mph 999.5mb 67f 55f
4:18am 16 20 mph 999.4mb 67f 55f
3:48am 16 20 mph 1000.1mb 67f 54f
3:18am 9 13 mph 1000.8mb 67f 55f
2:48am 9 13 mph 1001.6mb 67f 54f
2:18am 13 16 mph 1002.5mb 67f 55f
1:18am 11 16 mph 1003.3mb 67f 55f
12:18am 9 11 mph 1005mb 67f 55f
Wed 05/24 11:48pm 7 11 mph 1005.4mb 67f 55f
11:18pm 9 13 mph 1006.2mb 67f 56f
10:48pm 13 20 mph 1005.9mb 67f 58f
10:18pm 16 20 mph 1005.8mb 68f 58f
9:48pm 13 18 mph 1006.5mb 68f 59f
9:18pm 13 18 mph 1006.1mb 68f 59f
8:48pm 16 18 mph 1006mb 68f 60f
8:18pm 11 16 mph 1006.6mb 67f 61f
7:48pm 11 16 mph 1006.1mb 68f 62f
7:18pm 11 13 mph 1006.8mb 68f 61f
6:48pm 9 11 mph 1006.2mb 68f 62f
6:18pm 9 11 mph 1005.9mb 68f 62f
5:48pm 11 13 mph 1006.7mb 68f 61f
5:18pm 13 16 mph 1006.8mb 68f 61f
4:48pm 11 16 mph 1007.1mb 68f 61f
4:18pm 9 11 mph 1007.4mb 68f 61f
3:48pm 9 13 mph 1006.7mb 68f 61f
3:18pm 9 11 mph 1007.1mb 68f 61f
2:48pm 9 13 mph 1006.5mb 68f 60f
2:18pm 13 16 mph 1007.1mb 68f 60f
1:48pm 9 13 mph 1007.7mb 67f 61f
1:18pm 9 11 mph 1006.7mb 68f 61f
12:48pm 11 13 mph 1006.6mb 68f 62f
12:18pm 9 11 mph 1006.9mb 68f 62f
11:48am 4 7 mph 1007.6mb 68f 63f
11:18am 2 4 mph 1007.4mb 68f 62f
10:48am 4 7 mph 1006.7mb 68f 62f
10:18am 4 9 mph 1007.3mb 68f 60f
9:48am 4 7 mph 1006.9mb 68f 60f
9:18am 7 11 mph 1007.2mb 68f 58f
8:48am 7 9 mph 1007.5mb 68f 58f
8:18am 4 7 mph 1006.8mb 69f 57f
7:48am 4 9 mph 1008mb 68f 56f
7:18am 4 7 mph 1007.2mb 68f 56f
6:48am 7 9 mph 1006.9mb 69f 56f
6:18am 7 9 mph 1006.2mb 69f 56f
5:48am 7 9 mph 1005.4mb 69f 55f
5:18am 9 13 mph 1005.9mb 69f 55f
4:18am 4 7 mph 1005.6mb 68f 55f
3:48am 9 11 mph 1006.1mb 68f 56f
3:18am 7 9 mph 1005.8mb 68f 56f
2:48am 4 9 mph 1006.4mb 68f 57f
2:18am 7 9 mph 1006.1mb 68f 57f
1:48am 9 11 mph 1007mb 68f 58f
1:18am 7 11 mph 1007mb 68f 59f
12:48am 9 11 mph 1007.6mb 68f 59f
12:18am 7 9 mph 1007.8mb 68f 59f
Tue 05/23 11:48pm 4 7 mph 1007.1mb 68f 58f
10:48pm 7 7 mph 1008.5mb 68f 58f
10:18pm 7 11 mph 1008.6mb 69f 58f
9:48pm 2 7 mph 1009mb 69f 58f
9:18pm 7 9 mph 1008.5mb 69f 57f
8:48pm 4 9 mph 1009.4mb 69f 58f
8:18pm 7 9 mph 1009.8mb 69f 58f
7:48pm 9 9 mph 1009.6mb 69f 59f
7:18pm 7 7 mph 1010mb 69f 60f
6:48pm 7 7 mph 1009.6mb 69f 61f
6:18pm 9 11 mph 1010mb 69f 62f
5:48pm 11 11 mph 1009.9mb 69f 62f
5:18pm 11 13 mph 1009.7mb 69f 63f
4:48pm 11 13 mph 1010.6mb 69f 63f
4:18pm 11 13 mph 1010.2mb 69f 63f
3:48pm 9 9 mph 1011.6mb 69f 63f
3:18pm 9 11 mph 1011.5mb 69f 63f
2:48pm 11 13 mph 1011.6mb 69f 63f
2:18pm 7 9 mph 1012.4mb 69f 64f
1:48pm 4 7 mph 1012.4mb 69f 64f
1:18pm 9 11 mph 1013.7mb 69f 63f
12:48pm 11 13 mph 1013.4mb 69f 63f
12:18pm 9 11 mph 1013.3mb 69f 63f
11:48am 7 9 mph 1014.6mb 69f 62f
11:18am 9 11 mph 1013.7mb 69f 62f
10:48am 16 20 mph 1014.3mb 69f 61f
10:18am 4 9 mph 1014.8mb 69f 62f